createdAt,value
2023-01-31T00:00:28.905Z,83
2023-01-31T00:01:30.322Z,83
2023-01-31T00:02:31.955Z,83
2023-01-31T00:03:33.699Z,83
2023-01-31T00:04:35.529Z,83
2023-01-31T00:05:37.220Z,83
2023-01-31T00:06:40.164Z,83
2023-01-31T00:07:41.717Z,83
2023-01-31T00:08:43.121Z,83.1
2023-01-31T00:09:45.217Z,83
2023-01-31T00:10:46.627Z,82.9
2023-01-31T00:11:48.046Z,82.8
2023-01-31T00:12:49.460Z,82.7
2023-01-31T00:13:50.880Z,82.7
2023-01-31T00:14:52.304Z,82.7
2023-01-31T00:15:53.730Z,82.7
2023-01-31T00:16:55.127Z,82.7
2023-01-31T00:17:56.548Z,82.6
2023-01-31T00:18:57.981Z,82.5
2023-01-31T00:19:59.422Z,82.5
2023-01-31T00:21:00.815Z,82.4
2023-01-31T00:22:02.223Z,82.4
2023-01-31T00:23:03.647Z,82.3
2023-01-31T00:24:05.059Z,82.3
2023-01-31T00:25:06.497Z,82.2
2023-01-31T00:26:07.899Z,82.1
2023-01-31T00:27:09.318Z,81.9
2023-01-31T00:28:10.727Z,81.7
2023-01-31T00:29:12.169Z,81.7
2023-01-31T00:30:13.565Z,81.6
2023-01-31T00:31:15.494Z,81.6
2023-01-31T00:32:17.310Z,81.6
2023-01-31T00:33:18.711Z,81.7
2023-01-31T00:34:20.124Z,81.9
2023-01-31T00:35:22.583Z,82.1
2023-01-31T00:36:24.093Z,82.4
2023-01-31T00:37:25.512Z,82.6
2023-01-31T00:38:26.931Z,82.8
2023-01-31T00:39:28.342Z,83
2023-01-31T00:40:29.763Z,83.2
2023-01-31T00:41:31.175Z,83.3
2023-01-31T00:42:32.601Z,83.4
2023-01-31T00:43:34.714Z,83.5
2023-01-31T00:44:37.895Z,83.6
2023-01-31T00:45:39.319Z,83.7
2023-01-31T00:46:40.992Z,83.8
2023-01-31T00:47:42.440Z,83.9
2023-01-31T00:48:43.833Z,84
2023-01-31T00:49:45.248Z,84.1
2023-01-31T00:50:46.689Z,84.2
2023-01-31T00:51:48.081Z,84.2
2023-01-31T00:52:49.712Z,84.3
2023-01-31T00:53:51.278Z,84.4
2023-01-31T00:54:52.713Z,84.5
2023-01-31T00:55:54.112Z,84.6
2023-01-31T00:56:55.521Z,84.6
2023-01-31T00:57:56.951Z,84.7
2023-01-31T00:58:58.384Z,84.7
2023-01-31T00:59:59.788Z,84.8
2023-01-31T01:01:01.221Z,84.8
2023-01-31T01:02:02.900Z,84.9
2023-01-31T01:03:04.304Z,84.9
2023-01-31T01:04:05.743Z,84.8
2023-01-31T01:05:07.159Z,84.8
2023-01-31T01:06:08.604Z,84.7
2023-01-31T01:07:10.027Z,84.7
2023-01-31T01:08:11.593Z,84.7
2023-01-31T01:09:13.005Z,84.6
2023-01-31T01:10:14.420Z,84.6
2023-01-31T01:11:15.844Z,84.5
2023-01-31T01:12:17.254Z,84.5
2023-01-31T01:13:18.670Z,84.5
2023-01-31T01:14:20.082Z,84.5
2023-01-31T01:15:22.730Z,84.5
2023-01-31T01:16:24.616Z,84.5
2023-01-31T01:17:26.021Z,84.5
2023-01-31T01:18:27.532Z,84.5
2023-01-31T01:19:28.963Z,84.5
2023-01-31T01:20:30.368Z,84.6
2023-01-31T01:21:33.328Z,84.6
2023-01-31T01:22:35.590Z,84.6
2023-01-31T01:23:37.339Z,84.7
2023-01-31T01:24:38.770Z,84.7
2023-01-31T01:25:40.176Z,84.7
2023-01-31T01:26:41.995Z,84.8
2023-01-31T01:27:43.503Z,84.8
2023-01-31T01:28:44.914Z,84.9
2023-01-31T01:29:46.350Z,84.9
2023-01-31T01:30:47.747Z,84.9
2023-01-31T01:31:49.697Z,84.9
2023-01-31T01:32:51.236Z,85
2023-01-31T01:33:52.636Z,85
2023-01-31T01:34:54.048Z,85
2023-01-31T01:35:55.464Z,85.1
2023-01-31T01:36:56.905Z,85.1
2023-01-31T01:37:58.295Z,85.1
2023-01-31T01:38:59.712Z,85.2
2023-01-31T01:40:01.131Z,85.2
2023-01-31T01:41:02.812Z,85.2
2023-01-31T01:42:04.292Z,85.3
2023-01-31T01:43:05.701Z,85.2
2023-01-31T01:44:07.121Z,85.3
2023-01-31T01:45:08.532Z,85.3
2023-01-31T01:46:10.045Z,85.3
2023-01-31T01:47:11.491Z,85.2
2023-01-31T01:48:12.904Z,85.3
2023-01-31T01:49:14.322Z,85.2
2023-01-31T01:50:15.739Z,85.2
2023-01-31T01:51:17.190Z,85.3
2023-01-31T01:52:18.641Z,85.3
2023-01-31T01:53:20.133Z,85.3
2023-01-31T01:54:21.552Z,85.4
2023-01-31T01:55:23.595Z,85.4
2023-01-31T01:56:25.011Z,85.4
2023-01-31T01:57:26.737Z,85.5
2023-01-31T01:58:28.974Z,85.5
2023-01-31T01:59:31.054Z,85.5
2023-01-31T02:00:32.620Z,85.5
2023-01-31T02:01:34.003Z,85.5
2023-01-31T02:02:35.716Z,85.6
2023-01-31T02:03:37.610Z,85.6
2023-01-31T02:04:39.026Z,85.6
2023-01-31T02:05:40.453Z,85.6
2023-01-31T02:06:41.860Z,85.7
2023-01-31T02:07:48.716Z,85.7
2023-01-31T02:08:50.170Z,85.8
2023-01-31T02:09:51.545Z,85.8
2023-01-31T02:10:52.958Z,85.9
2023-01-31T02:11:54.383Z,85.9
2023-01-31T02:12:55.790Z,86
2023-01-31T02:13:57.209Z,86
2023-01-31T02:14:58.628Z,86.1
2023-01-31T02:16:00.041Z,86.2
2023-01-31T02:17:01.466Z,86.2
2023-01-31T02:18:02.883Z,86.3
2023-01-31T02:19:04.289Z,86.3
2023-01-31T02:20:05.710Z,86.3
2023-01-31T02:21:07.115Z,86.3
2023-01-31T02:22:08.537Z,86.3
2023-01-31T02:23:09.976Z,86.3
2023-01-31T02:24:11.366Z,86.2
2023-01-31T02:25:12.824Z,86.2
2023-01-31T02:26:14.236Z,86.2
2023-01-31T02:27:15.655Z,86.1
2023-01-31T02:28:17.065Z,86.2
2023-01-31T02:29:18.486Z,86.3
2023-01-31T02:30:19.906Z,86.3
2023-01-31T02:31:21.381Z,86.3
2023-01-31T02:32:23.140Z,86.4
2023-01-31T02:33:24.892Z,86.4
2023-01-31T02:34:27.140Z,86.6
2023-01-31T02:35:29.134Z,86.8
2023-01-31T02:36:30.574Z,86.9
2023-01-31T02:37:31.991Z,87.2
2023-01-31T02:38:33.483Z,87.6
2023-01-31T02:39:34.865Z,87.9
2023-01-31T02:40:36.484Z,88.1
2023-01-31T02:41:37.897Z,88.3
2023-01-31T02:42:39.311Z,88.4
2023-01-31T02:43:40.767Z,88.5
2023-01-31T02:44:42.158Z,88.7
2023-01-31T02:45:43.826Z,88.9
2023-01-31T02:46:45.292Z,89
2023-01-31T02:47:46.703Z,89.1
2023-01-31T02:48:48.122Z,89.1
2023-01-31T02:49:49.547Z,89.1
2023-01-31T02:50:50.956Z,89.1
2023-01-31T02:51:55.035Z,89.2
2023-01-31T02:52:56.413Z,89.3
2023-01-31T02:53:57.854Z,89.3
2023-01-31T02:54:59.248Z,89.3
2023-01-31T02:56:00.658Z,89.3
2023-01-31T02:57:02.079Z,89.4
2023-01-31T02:58:03.490Z,89.4
2023-01-31T02:59:04.905Z,89.4
2023-01-31T03:00:06.322Z,89.4
2023-01-31T03:01:07.845Z,89.4
2023-01-31T03:02:09.536Z,89.4
2023-01-31T03:03:11.000Z,89.4
2023-01-31T03:04:12.437Z,89.3
2023-01-31T03:05:13.835Z,89.3
2023-01-31T03:06:15.254Z,89.3
2023-01-31T03:07:16.689Z,89.3
2023-01-31T03:08:18.622Z,89.2
2023-01-31T03:09:20.992Z,89.2
2023-01-31T03:10:22.944Z,89.2
2023-01-31T03:11:24.368Z,89.2
2023-01-31T03:12:25.825Z,89.1
2023-01-31T03:13:27.321Z,89.2
2023-01-31T03:14:28.738Z,89.2
2023-01-31T03:15:30.154Z,89.1
2023-01-31T03:16:31.599Z,89.1
2023-01-31T03:17:33.393Z,89.1
2023-01-31T03:18:34.807Z,89.1
2023-01-31T03:19:36.904Z,89.1
2023-01-31T03:20:38.308Z,89.1
2023-01-31T03:21:39.720Z,89.1
2023-01-31T03:22:41.145Z,89.1
2023-01-31T03:23:42.554Z,89.1
2023-01-31T03:24:44.324Z,89.1
2023-01-31T03:25:45.718Z,89.1
2023-01-31T03:26:47.241Z,89.1
2023-01-31T03:27:48.650Z,89.1
2023-01-31T03:28:50.065Z,89.1
2023-01-31T03:29:51.481Z,89.1
2023-01-31T03:30:53.197Z,89.1
2023-01-31T03:31:55.416Z,89.1
2023-01-31T03:32:56.833Z,89.2
2023-01-31T03:33:58.242Z,89.2
2023-01-31T03:34:59.647Z,89.3
2023-01-31T03:36:01.076Z,89.4
2023-01-31T03:37:02.487Z,89.4
2023-01-31T03:38:03.902Z,89.4
2023-01-31T03:39:05.676Z,89.5
2023-01-31T03:40:07.134Z,89.5
2023-01-31T03:41:08.511Z,89.5
2023-01-31T03:42:09.928Z,89.5
2023-01-31T03:43:11.344Z,89.5
2023-01-31T03:44:12.777Z,89.5
2023-01-31T03:45:14.673Z,89.4
2023-01-31T03:46:17.031Z,89.5
2023-01-31T03:47:18.919Z,89.5
2023-01-31T03:48:20.324Z,89.5
2023-01-31T03:49:21.743Z,89.5
2023-01-31T03:50:23.153Z,89.6
2023-01-31T03:51:24.572Z,89.6
2023-01-31T03:52:25.994Z,89.7
2023-01-31T03:53:27.400Z,89.7
2023-01-31T03:54:28.830Z,89.8
2023-01-31T03:55:30.268Z,89.9
2023-01-31T03:56:31.661Z,89.9
2023-01-31T03:57:33.413Z,90
2023-01-31T03:58:34.980Z,90
2023-01-31T03:59:36.399Z,90.1
2023-01-31T04:00:38.139Z,90.1
2023-01-31T04:01:39.821Z,90.2
2023-01-31T04:02:41.450Z,90.2
2023-01-31T04:03:42.872Z,90.3
2023-01-31T04:04:44.280Z,90.4
2023-01-31T04:05:45.723Z,90.4
2023-01-31T04:06:47.113Z,90.4
2023-01-31T04:07:48.532Z,90.4
2023-01-31T04:08:50.080Z,90.4
2023-01-31T04:09:51.496Z,90.4
2023-01-31T04:10:53.099Z,90.4
2023-01-31T04:11:54.536Z,90.4
2023-01-31T04:12:55.915Z,90.4
2023-01-31T04:13:57.329Z,90.4
2023-01-31T04:14:58.746Z,90.4
2023-01-31T04:16:00.352Z,90.4
2023-01-31T04:17:01.805Z,90.4
2023-01-31T04:18:03.215Z,90.3
2023-01-31T04:19:04.668Z,90.3
2023-01-31T04:20:06.091Z,90.3
2023-01-31T04:21:07.504Z,90.3
2023-01-31T04:22:08.921Z,90.3
2023-01-31T04:23:10.822Z,90.3
2023-01-31T04:24:12.977Z,90.2
2023-01-31T04:25:14.396Z,90.2
2023-01-31T04:26:16.115Z,90.2
2023-01-31T04:27:17.540Z,90.2
2023-01-31T04:28:18.954Z,90.2
2023-01-31T04:29:20.381Z,90.2
2023-01-31T04:30:21.572Z,90.2
2023-01-31T04:31:23.319Z,90.2
2023-01-31T04:32:24.854Z,90.2
2023-01-31T04:33:26.257Z,90.2
2023-01-31T04:34:27.676Z,90.2
2023-01-31T04:35:29.089Z,90.2
2023-01-31T04:36:30.511Z,90.2
2023-01-31T04:37:32.334Z,90.2
2023-01-31T04:38:34.017Z,90.2
2023-01-31T04:39:35.424Z,90.2
2023-01-31T04:40:37.549Z,90.3
2023-01-31T04:41:38.954Z,90.3
2023-01-31T04:42:40.341Z,90.3
2023-01-31T04:43:41.755Z,90.3
2023-01-31T04:44:43.177Z,90.3
2023-01-31T04:45:55.214Z,90.2
2023-01-31T04:46:56.986Z,90.2
2023-01-31T04:47:58.374Z,90.2
2023-01-31T04:48:59.791Z,90.2
2023-01-31T04:50:01.224Z,90.1
2023-01-31T04:51:02.647Z,90
2023-01-31T04:52:04.041Z,90
2023-01-31T04:53:05.455Z,89.9
2023-01-31T04:54:07.456Z,89.8
2023-01-31T04:55:09.714Z,89.7
2023-01-31T04:56:11.128Z,89.6
2023-01-31T04:57:12.592Z,89.5
2023-01-31T04:58:14.069Z,89.4
2023-01-31T04:59:15.488Z,89.3
2023-01-31T05:00:16.904Z,89.1
2023-01-31T05:01:18.464Z,88.7
2023-01-31T05:02:20.134Z,88.5
2023-01-31T05:03:21.523Z,88.3
2023-01-31T05:04:22.943Z,88.1
2023-01-31T05:05:24.081Z,87.9
2023-01-31T05:06:25.490Z,87.6
2023-01-31T05:07:26.936Z,87.4
2023-01-31T05:08:28.327Z,87.2
2023-01-31T05:09:29.744Z,87
2023-01-31T05:10:31.597Z,86.8
2023-01-31T05:11:33.548Z,86.5
2023-01-31T05:12:34.995Z,86.3
2023-01-31T05:13:36.672Z,86.2
2023-01-31T05:14:38.090Z,86
2023-01-31T05:15:39.505Z,85.9
2023-01-31T05:16:41.238Z,85.7
2023-01-31T05:17:42.776Z,85.5
2023-01-31T05:18:44.193Z,85.4
2023-01-31T05:19:45.605Z,85.3
2023-01-31T05:20:47.022Z,85.1
2023-01-31T05:21:48.440Z,85
2023-01-31T05:22:49.874Z,84.9
2023-01-31T05:23:51.307Z,84.8
2023-01-31T05:24:52.726Z,84.7
2023-01-31T05:25:54.142Z,84.6
2023-01-31T05:26:55.707Z,84.5
2023-01-31T05:27:57.376Z,84.3
2023-01-31T05:28:59.001Z,84.2
2023-01-31T05:30:00.952Z,83.9
2023-01-31T05:31:04.061Z,83.8
2023-01-31T05:32:07.276Z,83.7
2023-01-31T05:33:08.790Z,83.6
2023-01-31T05:34:10.211Z,83.6
2023-01-31T05:35:11.626Z,83.5
2023-01-31T05:36:13.035Z,83.4
2023-01-31T05:37:14.461Z,83.3
2023-01-31T05:38:15.866Z,83.2
2023-01-31T05:39:17.280Z,83.1
2023-01-31T05:40:18.703Z,83
2023-01-31T05:41:20.127Z,83
2023-01-31T05:42:21.531Z,82.9
2023-01-31T05:43:23.393Z,83
2023-01-31T05:44:24.790Z,83.2
2023-01-31T05:45:26.382Z,83.4
2023-01-31T05:46:27.824Z,83.3
2023-01-31T05:47:29.241Z,83.1
2023-01-31T05:48:31.074Z,83
2023-01-31T05:49:33.815Z,82.8
2023-01-31T05:50:35.415Z,82.7
2023-01-31T05:51:36.834Z,82.6
2023-01-31T05:52:38.251Z,82.5
2023-01-31T05:53:39.661Z,82.5
2023-01-31T05:54:41.081Z,82.4
2023-01-31T05:55:42.498Z,82.4
2023-01-31T05:56:43.915Z,82.3
2023-01-31T05:57:45.327Z,82.3
2023-01-31T05:58:46.949Z,82.3
2023-01-31T05:59:48.340Z,82.3
2023-01-31T06:00:49.754Z,82.3
2023-01-31T06:01:51.364Z,82.4
2023-01-31T06:02:52.858Z,82.4
2023-01-31T06:03:54.269Z,82.4
2023-01-31T06:04:55.667Z,82.4
2023-01-31T06:05:57.084Z,82.4
2023-01-31T06:06:59.108Z,82.5
2023-01-31T06:08:01.174Z,82.5
2023-01-31T06:09:02.580Z,82.5
2023-01-31T06:10:04.016Z,82.5
2023-01-31T06:11:05.412Z,82.5
2023-01-31T06:12:06.826Z,82.5
2023-01-31T06:13:08.243Z,82.4
2023-01-31T06:14:09.685Z,82.4
2023-01-31T06:15:11.073Z,82.3
2023-01-31T06:16:12.554Z,82.3
2023-01-31T06:17:14.013Z,82.4
2023-01-31T06:18:15.444Z,82.4
2023-01-31T06:19:16.851Z,82.4
2023-01-31T06:20:18.305Z,82.3
2023-01-31T06:21:19.694Z,82.3
2023-01-31T06:22:21.095Z,82.3
2023-01-31T06:23:22.518Z,82.2
2023-01-31T06:24:23.940Z,82.1
2023-01-31T06:25:25.343Z,82
2023-01-31T06:26:26.821Z,81.9
2023-01-31T06:27:28.323Z,81.8
2023-01-31T06:28:29.739Z,81.7
2023-01-31T06:29:32.555Z,81.6
2023-01-31T06:30:34.720Z,81.6
2023-01-31T06:31:36.808Z,81.6
2023-01-31T06:32:38.286Z,81.6
2023-01-31T06:33:48.816Z,81.5
2023-01-31T06:34:50.237Z,81.5
2023-01-31T06:35:51.648Z,81.5
2023-01-31T06:36:53.054Z,81.4
2023-01-31T06:37:54.475Z,81.4
2023-01-31T06:38:56.778Z,81.5
2023-01-31T06:39:58.731Z,81.5
2023-01-31T06:40:59.869Z,81.6
2023-01-31T06:42:01.284Z,81.6
2023-01-31T06:43:02.799Z,81.7
2023-01-31T06:44:04.385Z,81.8
2023-01-31T06:45:05.892Z,81.8
2023-01-31T06:46:07.670Z,81.9
2023-01-31T06:47:09.115Z,81.9
2023-01-31T06:48:10.526Z,82
2023-01-31T06:49:11.945Z,82
2023-01-31T06:50:13.359Z,82.1
2023-01-31T06:51:14.774Z,82.1
2023-01-31T06:52:16.341Z,82.2
2023-01-31T06:53:17.968Z,82.2
2023-01-31T06:54:19.388Z,82.3
2023-01-31T06:55:22.000Z,82.3
2023-01-31T06:56:23.515Z,82.4
2023-01-31T06:57:24.920Z,82.5
2023-01-31T06:58:26.340Z,82.5
2023-01-31T06:59:27.759Z,82.6
2023-01-31T07:00:29.230Z,82.6
2023-01-31T07:01:32.730Z,82.7
2023-01-31T07:02:34.205Z,82.7
2023-01-31T07:03:35.619Z,82.7
2023-01-31T07:04:37.069Z,82.8
2023-01-31T07:05:38.475Z,82.8
2023-01-31T07:06:39.890Z,82.8
2023-01-31T07:07:41.308Z,82.9
2023-01-31T07:08:42.722Z,82.9
2023-01-31T07:09:44.156Z,82.9
2023-01-31T07:10:45.551Z,83
2023-01-31T07:11:46.975Z,83
2023-01-31T07:12:48.388Z,83
2023-01-31T07:13:49.799Z,83.1
2023-01-31T07:14:51.211Z,83.1
2023-01-31T07:15:53.595Z,83.1
2023-01-31T07:16:55.091Z,83.1
2023-01-31T07:17:56.801Z,83.1
2023-01-31T07:18:58.219Z,83.1
2023-01-31T07:19:59.641Z,83.1
2023-01-31T07:21:01.052Z,83.1
2023-01-31T07:22:02.469Z,83.1
2023-01-31T07:23:03.877Z,83.1
2023-01-31T07:24:05.293Z,83.1
2023-01-31T07:25:06.713Z,83
2023-01-31T07:26:08.131Z,83
2023-01-31T07:27:09.543Z,82.9
2023-01-31T07:28:10.961Z,82.8
2023-01-31T07:29:12.389Z,82.7
2023-01-31T07:30:13.792Z,82.6
2023-01-31T07:31:15.625Z,82.6
2023-01-31T07:32:17.175Z,82.6
2023-01-31T07:33:18.619Z,82.6
2023-01-31T07:34:20.009Z,82.6
2023-01-31T07:35:22.574Z,82.7
2023-01-31T07:36:24.103Z,82.7
2023-01-31T07:37:25.549Z,82.7
2023-01-31T07:38:26.948Z,82.7
2023-01-31T07:39:28.363Z,82.7
2023-01-31T07:40:30.936Z,82.7
2023-01-31T07:41:32.712Z,82.7
2023-01-31T07:42:34.393Z,82.7
2023-01-31T07:43:35.808Z,82.7
2023-01-31T07:44:37.225Z,82.6
2023-01-31T07:45:40.151Z,82.6
2023-01-31T07:46:41.708Z,82.6
2023-01-31T07:47:43.097Z,82.6
2023-01-31T07:48:44.514Z,82.6
2023-01-31T07:49:45.928Z,82.5
2023-01-31T07:50:47.345Z,82.5
2023-01-31T07:51:49.672Z,82.5
2023-01-31T07:52:51.120Z,82.5
2023-01-31T07:53:52.504Z,82.5
2023-01-31T07:54:53.920Z,82.6
2023-01-31T07:55:55.337Z,82.6
2023-01-31T07:57:57.375Z,82.7
2023-01-31T07:58:58.792Z,82.7
2023-01-31T08:00:00.202Z,82.7
2023-01-31T08:01:01.673Z,82.6
2023-01-31T08:02:03.100Z,82.6
2023-01-31T08:03:04.503Z,82.5
2023-01-31T08:04:23.237Z,82.4
2023-01-31T08:05:25.033Z,82.4
2023-01-31T08:06:26.447Z,82.4
2023-01-31T08:07:28.120Z,82.4
2023-01-31T08:08:30.674Z,82.4
2023-01-31T08:09:33.412Z,82.4
2023-01-31T08:10:34.827Z,82.3
2023-01-31T08:11:36.244Z,82.3
2023-01-31T08:12:37.659Z,82.2
2023-01-31T08:13:39.084Z,82.2
2023-01-31T08:14:40.490Z,82.2
2023-01-31T08:15:41.909Z,82.1
2023-01-31T08:16:43.531Z,82.1
2023-01-31T08:17:45.200Z,82.1
2023-01-31T08:18:47.347Z,82.1
2023-01-31T08:19:48.760Z,82.1
2023-01-31T08:20:50.184Z,82.1
2023-01-31T08:21:51.593Z,82.1
2023-01-31T08:22:53.018Z,82.1
2023-01-31T08:23:54.422Z,82.1
2023-01-31T08:24:55.935Z,82.1
2023-01-31T08:25:57.303Z,82
2023-01-31T08:26:58.728Z,82
2023-01-31T08:28:00.175Z,82
2023-01-31T08:29:01.587Z,82
2023-01-31T08:30:02.978Z,81.9
2023-01-31T08:31:10.483Z,81.8
2023-01-31T08:32:12.193Z,81.8
2023-01-31T08:33:13.660Z,81.6
2023-01-31T08:34:15.110Z,81.5
2023-01-31T08:35:16.527Z,81.4
2023-01-31T08:36:17.937Z,81.5
2023-01-31T08:37:19.922Z,81.5
2023-01-31T08:38:21.608Z,81.6
2023-01-31T08:39:23.013Z,81.5
2023-01-31T08:40:24.440Z,81.4
2023-01-31T08:41:25.871Z,81.3
2023-01-31T08:42:27.286Z,81.2
2023-01-31T08:43:29.029Z,81.1
2023-01-31T08:44:31.921Z,81.1
2023-01-31T08:45:33.511Z,80.9
2023-01-31T08:46:35.191Z,80.8
2023-01-31T08:47:36.686Z,80.7
2023-01-31T08:48:38.128Z,80.6
2023-01-31T08:49:39.521Z,80.5
2023-01-31T08:50:42.103Z,80.5
2023-01-31T08:51:43.520Z,80.3
2023-01-31T08:52:44.933Z,80.2
2023-01-31T08:53:47.081Z,80.1
2023-01-31T08:54:48.506Z,80
2023-01-31T08:55:49.925Z,79.8
2023-01-31T08:56:51.342Z,79.6
2023-01-31T08:58:01.061Z,79.2
2023-01-31T08:59:02.238Z,79
2023-01-31T09:00:03.658Z,79.1
2023-01-31T09:01:05.065Z,79.2
2023-01-31T09:02:06.707Z,79
2023-01-31T09:03:08.428Z,78.8
2023-01-31T09:04:09.845Z,78.5
2023-01-31T09:05:11.230Z,78.4
2023-01-31T09:06:12.668Z,78.2
2023-01-31T09:07:14.067Z,78.1
2023-01-31T09:08:15.479Z,78
2023-01-31T09:09:16.897Z,77.8
2023-01-31T09:10:18.314Z,77.9
2023-01-31T09:11:20.439Z,78.1
2023-01-31T09:12:21.858Z,78.3
2023-01-31T09:13:23.298Z,78.3
2023-01-31T09:14:24.703Z,78.2
2023-01-31T09:15:26.107Z,78.1
2023-01-31T09:16:27.561Z,78.1
2023-01-31T09:17:29.928Z,78.2
2023-01-31T09:18:32.195Z,78.2
2023-01-31T09:19:33.832Z,78.2
2023-01-31T09:20:35.233Z,78.1
2023-01-31T09:21:36.648Z,77.9
2023-01-31T09:22:38.483Z,77.9
2023-01-31T09:23:43.579Z,77.9
2023-01-31T09:24:45.140Z,77.9
2023-01-31T09:25:49.755Z,78
2023-01-31T09:26:51.383Z,78
2023-01-31T09:27:52.848Z,78
2023-01-31T09:28:54.257Z,78
2023-01-31T09:29:55.693Z,78
2023-01-31T09:30:57.318Z,78.1
2023-01-31T09:31:58.989Z,78
2023-01-31T09:33:00.454Z,77.8
2023-01-31T09:34:02.012Z,77.7
2023-01-31T09:35:03.608Z,77.5
2023-01-31T09:36:05.166Z,77.3
2023-01-31T09:37:06.572Z,77.3
2023-01-31T09:38:07.983Z,77.4
2023-01-31T09:39:09.400Z,77.1
2023-01-31T09:40:10.819Z,77.1
2023-01-31T09:41:12.239Z,77
2023-01-31T09:42:13.648Z,76.7
2023-01-31T09:43:15.065Z,76.7
2023-01-31T09:44:16.483Z,76.8
2023-01-31T09:45:18.263Z,76.7
2023-01-31T09:46:20.004Z,76.7
2023-01-31T09:47:21.992Z,76.7
2023-01-31T09:48:23.411Z,76.7
2023-01-31T09:49:24.824Z,76.8
2023-01-31T09:50:26.268Z,76.8
2023-01-31T09:51:27.666Z,76.8
2023-01-31T09:52:30.159Z,76.8
2023-01-31T09:53:32.005Z,76.6
2023-01-31T09:54:34.105Z,76.5
2023-01-31T09:55:36.084Z,76.5
2023-01-31T09:56:37.804Z,76.4
2023-01-31T09:57:39.220Z,76.4
2023-01-31T09:58:40.637Z,76.5
2023-01-31T09:59:42.070Z,76.5
2023-01-31T10:00:43.494Z,76.2
2023-01-31T10:01:44.927Z,76.1
2023-01-31T10:02:46.334Z,76
2023-01-31T10:03:47.841Z,75.7
2023-01-31T10:04:49.315Z,75.7
2023-01-31T10:05:50.775Z,75.8
2023-01-31T10:06:52.155Z,75.7
2023-01-31T10:07:53.593Z,75.3
2023-01-31T10:08:54.985Z,75
2023-01-31T10:09:56.404Z,75.1
2023-01-31T10:10:57.821Z,74.7
2023-01-31T10:11:59.238Z,74.8
2023-01-31T10:13:00.649Z,75
2023-01-31T10:14:02.074Z,75.2
2023-01-31T10:15:03.492Z,75.1
2023-01-31T10:16:04.895Z,74.9
2023-01-31T10:17:06.620Z,75
2023-01-31T10:18:08.083Z,75.1
2023-01-31T10:19:09.494Z,75.4
2023-01-31T10:20:10.929Z,75.7
2023-01-31T10:21:12.354Z,75.8
2023-01-31T10:22:13.742Z,75.5
2023-01-31T10:23:15.160Z,75.3
2023-01-31T10:24:16.576Z,75.1
2023-01-31T10:25:17.988Z,74.8
2023-01-31T10:26:19.444Z,74.6
2023-01-31T10:27:20.906Z,74.5
2023-01-31T10:28:22.328Z,73.9
2023-01-31T10:29:23.741Z,73.9
2023-01-31T10:30:26.110Z,73.9
2023-01-31T10:31:28.056Z,74.2
2023-01-31T10:32:30.287Z,74.1
2023-01-31T10:33:32.830Z,73.8
2023-01-31T10:34:34.245Z,73.8
2023-01-31T10:35:35.664Z,73.6
2023-01-31T10:36:37.127Z,73.7
2023-01-31T10:37:38.518Z,74
2023-01-31T10:38:39.935Z,74.4
2023-01-31T10:39:41.364Z,74.8
2023-01-31T10:40:42.770Z,74.6
2023-01-31T10:41:44.206Z,74.4
2023-01-31T10:42:45.612Z,74.4
2023-01-31T10:43:47.020Z,74.3
2023-01-31T10:44:48.435Z,74.2
2023-01-31T10:45:49.966Z,74.3
2023-01-31T10:46:54.259Z,74.5
2023-01-31T10:47:55.636Z,74.6
2023-01-31T10:48:57.677Z,74.6
2023-01-31T10:49:59.107Z,74.7
2023-01-31T10:51:00.523Z,74.7
2023-01-31T10:52:01.950Z,74.8
2023-01-31T10:53:03.355Z,74.8
2023-01-31T10:54:04.770Z,74.6
2023-01-31T10:55:06.182Z,74.9
2023-01-31T10:56:07.600Z,75.1
2023-01-31T10:57:09.034Z,75.3
2023-01-31T10:58:10.155Z,75.3
2023-01-31T10:59:11.293Z,75.4
2023-01-31T11:00:12.710Z,75.3
2023-01-31T11:01:14.287Z,75.1
2023-01-31T11:02:15.749Z,75
2023-01-31T11:03:17.160Z,75
2023-01-31T11:04:18.570Z,74.9
2023-01-31T11:05:20.537Z,75.2
2023-01-31T11:06:21.942Z,75.4
2023-01-31T11:07:23.395Z,75.5
2023-01-31T11:08:24.781Z,75.6
2023-01-31T11:09:26.196Z,75.7
2023-01-31T11:10:27.609Z,75.8
2023-01-31T11:11:29.049Z,75.8
2023-01-31T11:12:30.460Z,75.8
2023-01-31T11:13:31.879Z,75.9
2023-01-31T11:14:33.302Z,76
2023-01-31T11:15:34.707Z,76.2
2023-01-31T11:16:36.568Z,76.2
2023-01-31T11:17:38.065Z,76.3
2023-01-31T11:18:39.471Z,76.3
2023-01-31T11:19:40.888Z,76.4
2023-01-31T11:20:42.301Z,76.4
2023-01-31T11:21:43.716Z,76.4
2023-01-31T11:22:45.163Z,76.5
2023-01-31T11:23:46.552Z,76.4
2023-01-31T11:24:47.959Z,76.4
2023-01-31T11:25:49.385Z,76.4
2023-01-31T11:26:50.908Z,76.5
2023-01-31T11:27:52.301Z,76.6
2023-01-31T11:28:53.726Z,76.6
2023-01-31T11:29:55.132Z,76.7
2023-01-31T11:30:56.728Z,76.8
2023-01-31T11:31:58.340Z,76.8
2023-01-31T11:32:59.888Z,76.9
2023-01-31T11:34:01.289Z,76.8
2023-01-31T11:35:02.698Z,76.8
2023-01-31T11:36:04.118Z,76.8
2023-01-31T11:37:05.531Z,76.8
2023-01-31T11:38:07.011Z,76.7
2023-01-31T11:39:08.410Z,76.7
2023-01-31T11:40:09.814Z,76.7
2023-01-31T11:41:11.451Z,76.7
2023-01-31T11:42:12.823Z,76.7
2023-01-31T11:43:14.247Z,76.5
2023-01-31T11:44:15.686Z,76.5
2023-01-31T11:45:17.100Z,76.4
2023-01-31T11:46:18.615Z,76.5
2023-01-31T11:47:20.003Z,76.5
2023-01-31T11:48:21.440Z,76.6
2023-01-31T11:49:22.557Z,76.7
2023-01-31T11:50:28.557Z,76.7
2023-01-31T11:51:29.945Z,76.6
2023-01-31T11:52:31.250Z,76.5
2023-01-31T11:53:32.688Z,76.5
2023-01-31T11:54:33.523Z,76.3
2023-01-31T11:55:34.941Z,76.1
2023-01-31T11:56:36.353Z,75.8
2023-01-31T11:57:37.781Z,75.8
2023-01-31T11:58:39.177Z,75.8
2023-01-31T11:59:40.595Z,75.6
2023-01-31T12:00:42.017Z,75.4
2023-01-31T12:01:43.142Z,75.3
2023-01-31T12:02:44.635Z,75.4
2023-01-31T12:04:05.019Z,75.5
2023-01-31T12:05:06.551Z,75.4
2023-01-31T12:06:07.975Z,75.3
2023-01-31T12:07:09.380Z,75.1
2023-01-31T12:08:10.805Z,75.1
2023-01-31T12:09:12.237Z,75.4
2023-01-31T12:10:13.493Z,75.4
2023-01-31T12:11:14.890Z,75.6
2023-01-31T12:12:16.318Z,75.7
2023-01-31T12:13:20.298Z,75.4
2023-01-31T12:14:21.738Z,75.5
2023-01-31T12:15:23.387Z,75.7
2023-01-31T12:16:24.696Z,75.9
2023-01-31T12:17:26.076Z,76.1
2023-01-31T12:18:29.695Z,76.1
2023-01-31T12:19:30.850Z,76.2
2023-01-31T12:20:32.246Z,76.3
2023-01-31T12:21:33.654Z,76.2
2023-01-31T12:22:35.082Z,76.3
2023-01-31T12:23:36.493Z,76.3
2023-01-31T12:24:37.948Z,76.5
2023-01-31T12:25:39.343Z,76.6
2023-01-31T12:26:40.665Z,76.9
2023-01-31T12:27:42.150Z,76.7
2023-01-31T12:28:43.294Z,76.7
2023-01-31T12:29:44.695Z,76.9
2023-01-31T12:30:46.727Z,77.2
2023-01-31T12:31:48.666Z,77.4
2023-01-31T12:32:50.165Z,77.6
2023-01-31T12:33:51.593Z,77.5
2023-01-31T12:35:08.853Z,77.5
2023-01-31T12:36:10.797Z,77.6
2023-01-31T12:37:12.208Z,77.6
2023-01-31T12:38:13.622Z,77.7
2023-01-31T12:39:15.036Z,78
2023-01-31T12:40:30.497Z,78.2
2023-01-31T12:41:31.816Z,78.5
2023-01-31T12:42:33.237Z,78.4
2023-01-31T12:43:34.414Z,78.3
2023-01-31T12:44:35.603Z,78.2
2023-01-31T12:45:36.727Z,78
2023-01-31T12:46:38.069Z,78.1
2023-01-31T12:47:39.509Z,78
2023-01-31T12:48:40.933Z,77.9
2023-01-31T12:49:42.415Z,78
2023-01-31T12:50:43.826Z,78
2023-01-31T12:51:45.514Z,78
2023-01-31T12:52:46.922Z,78
2023-01-31T12:53:48.389Z,77.7
2023-01-31T12:54:49.615Z,77.7
2023-01-31T12:55:51.058Z,77.7
2023-01-31T12:56:52.552Z,77.7
2023-01-31T12:57:54.015Z,78
2023-01-31T12:59:17.107Z,77.9
2023-01-31T13:00:18.494Z,77.9
2023-01-31T13:01:19.968Z,77.7
2023-01-31T13:02:21.535Z,77.6
2023-01-31T13:03:22.933Z,77.4
2023-01-31T13:04:24.400Z,76.9
2023-01-31T13:05:28.997Z,76.6
2023-01-31T13:06:30.461Z,76.5
2023-01-31T13:07:32.523Z,76.4
2023-01-31T13:08:33.939Z,76.4
2023-01-31T13:09:35.376Z,76.3
2023-01-31T13:10:36.812Z,76.3
2023-01-31T13:11:38.163Z,76.3
2023-01-31T13:12:39.566Z,76.2
2023-01-31T13:13:40.424Z,76.1
2023-01-31T13:14:41.842Z,76.2
2023-01-31T13:15:43.498Z,76.1
2023-01-31T13:16:45.052Z,76.1
2023-01-31T13:17:46.699Z,76.2
2023-01-31T13:18:48.207Z,76.2
2023-01-31T13:19:52.513Z,76.3
2023-01-31T13:20:53.955Z,76.3
2023-01-31T13:21:55.371Z,76.3
2023-01-31T13:22:56.928Z,76.1
2023-01-31T13:23:58.648Z,76
2023-01-31T13:25:00.116Z,75.8
2023-01-31T13:26:01.504Z,75.7
2023-01-31T13:27:02.780Z,75.7
2023-01-31T13:28:04.191Z,75.5
2023-01-31T13:29:05.592Z,75.2
2023-01-31T13:30:07.148Z,75.2
2023-01-31T13:31:09.157Z,75.2
2023-01-31T13:32:10.512Z,75.2
2023-01-31T13:33:11.886Z,75.2
2023-01-31T13:34:13.066Z,75.2
2023-01-31T13:35:14.475Z,75.2
2023-01-31T13:36:15.856Z,75.2
2023-01-31T13:37:17.312Z,75.3
2023-01-31T13:38:18.730Z,75.4
2023-01-31T13:39:19.868Z,75.6
2023-01-31T13:40:21.277Z,75.6
2023-01-31T13:41:22.695Z,75.7
2023-01-31T13:42:24.135Z,75.6
2023-01-31T13:43:25.522Z,75.7
2023-01-31T13:44:26.939Z,75.8
2023-01-31T13:45:28.355Z,75.9
2023-01-31T13:46:29.887Z,75.9
2023-01-31T13:47:34.226Z,76